Nearby METAR Reports

 

KMTN - Baltimore/Martin, Maryland, USA
Distance from station: SSE 8mi, 13km
Updated: Thu, 05-May-2016 12:30am EDT
Overcast
Overcast
 Wind from ENE
Wind: ENE 5 mph , 7 km/h
Temperature: 52°F , 11°C
Dew Point: 50°F , 10°C
Humidity: 94%
Barometer: 29.74 inHg , 1007.1 hPa
Clouds: Overcast
Visibility: 10 miles , 16 km
Cloud details: Overcast 1200 ft
2016/05/05 04:30 KMTN 050430Z AUTO 06004KT 10SM OVC012 11/10 A2974 RMK AO2
KDMH - Baltimore/Dwntwn, Maryland, USA
Distance from station: SW 12mi, 19km
Updated: Wed, 04-May-2016 11:54pm EDT

 
Temperature: 52°F , 11°C
Dew Point: 46°F , 8°C
Humidity: 82%
Barometer: 29.73 inHg , 1006.8 hPa
2016/05/05 03:54 KDMH 050354Z AUTO 11/08 A2973 RMK AO1 SLP067 T01110078
 
KBWI - Balto/Wash Intl, Maryland, USA
Distance from station: SSW 20mi, 33km
Updated: Wed, 04-May-2016 11:54pm EDT
Light drizzle, Mist, Overcast
Light drizzle, Mist, Overcast
 Wind from E
Wind: E 14 mph , 22 km/h
Temperature: 52°F , 11°C
Dew Point: 46°F , 8°C
Humidity: 82%
Barometer: 29.72 inHg , 1006.4 hPa
Summary: Light drizzle, Mist
Clouds: Overcast
Visibility: 5 miles , 8 km
Cloud details: Mostly cloudy 1000 ft
Overcast 1700 ft
2016/05/05 03:54 KBWI 050354Z 08012KT 5SM -DZ BR BKN010 OVC017 11/08 A2972 RMK AO2 DZB49 SLP062 P0000 T01060083
KDMW - Carroll Cnty, Maryland, USA
Distance from station: WNW 30mi, 48km
Updated: Thu, 05-May-2016 12:30am EDT
Light drizzle, Overcast
Light drizzle, Overcast
 Wind from E
Wind: E 3 mph , 6 km/h
Temperature: 48°F , 9°C
Dew Point: 43°F , 6°C
Humidity: 82%
Barometer: 29.71 inHg , 1006.1 hPa
Summary: Light Drizzle
Clouds: Overcast
Visibility: 3 miles , 5 km
Cloud details: Overcast 500 ft
2016/05/05 04:30 KDMW 050430Z AUTO 08003KT 3SM -DZ OVC005 09/06 A2971 RMK AO2
 
KNAK - Annapolis/Naval, Maryland, USA
Distance from station: S 30mi, 48km
Updated: Wed, 04-May-2016 11:54pm EDT
Overcast
Overcast
 Wind from ENE
Wind: ENE 9 mph , 15 km/h
Temperature: 52°F , 11°C
Dew Point: 48°F , 9°C
Humidity: 88%
Barometer: 29.72 inHg , 1006.4 hPa
Clouds: Overcast
Visibility: 8 miles , 13 km
Cloud details: Few Clouds 1100 ft
Overcast 1800 ft
2016/05/05 03:54 KNAK 050354Z AUTO 07008KT 8SM FEW011 OVC018 11/09 A2972 RMK AO2 RAB26E37 SLP065 P0000 T01110089 $
KW29 - Stevensville, Maryland, USA
Distance from station: SSE 31mi, 50km
Updated: Tue, 26-Apr-2016 2:56pm EDT
NOT Current

 
Temperature: 79°F , 26°C
Dew Point: 50°F , 10°C
Humidity: 37%
Barometer: 29.68 inHg , 1005.1 hPa
Visibility: 10 miles , 16 km
2016/04/26 18:56 KW29 261856Z 10SM 26/10 A2968 RMK AO1
 
KCGS - College Park, Maryland, USA
Distance from station: SW 38mi, 61km
Updated: Thu, 05-May-2016 12:30am EDT
Overcast
Overcast
 Wind from calm
Wind: Calm
Temperature: 50°F , 10°C
Dew Point: 46°F , 8°C
Humidity: 88%
Barometer: 29.71 inHg , 1006.1 hPa
Clouds: Overcast
Visibility: 10 miles , 16 km
Cloud details: Partly cloudy 900 ft
Mostly cloudy 1400 ft
Overcast 2000 ft
2016/05/05 04:30 KCGS 050430Z AUTO 00000KT 10SM SCT009 BKN014 OVC020 10/08 A2971 RMK AO1
KGAI - Gaithersburg, Maryland, USA
Distance from station: WSW 40mi, 65km
Updated: Thu, 05-May-2016 12:35am EDT
Overcast
Overcast
 Wind from E
Wind: E 6 mph , 9 km/h
Temperature: 50°F , 10°C
Wind Chill: 48°F , 9°C
Dew Point: 45°F , 7°C
Humidity: 82%
Barometer: 29.74 inHg , 1007.1 hPa
Clouds: Overcast
Visibility: 10 miles , 16 km
Cloud details: Overcast 800 ft
2016/05/05 04:35 KGAI 050435Z AUTO 10005KT 10SM OVC008 10/07 A2974 RMK AO1
 
KTHV - York, Pennsylvania, USA
Distance from station: NNW 40mi, 65km
Updated: Thu, 05-May-2016 12:28am EDT
Overcast
Overcast
 Wind from ESE
Wind: ESE 8 mph , 13 km/h
Temperature: 50°F , 10°C
Wind Chill: 47°F , 8°C
Dew Point: 46°F , 8°C
Humidity: 88%
Barometer: 29.72 inHg , 1006.4 hPa
Clouds: Overcast
Visibility: 7 miles , 11 km
Cloud details: Overcast 900 ft
2016/05/05 04:28 KTHV 050428Z AUTO 11007KT 7SM OVC009 10/08 A2972 RMK AO2 CIG 008V013 T01000083
KFDK - Frederick, Maryland, USA
Distance from station: W 47mi, 75km
Updated: Thu, 05-May-2016 12:30am EDT
Overcast
Overcast
 Wind from E
Wind: E 8 mph , 13 km/h
Temperature: 52°F , 11°C
Dew Point: 52°F , 11°C
Humidity: 100%
Barometer: 29.73 inHg , 1006.8 hPa
Clouds: Overcast
Visibility: 10 miles , 16 km
Cloud details: Overcast 1100 ft
2016/05/05 04:30 KFDK 050430Z AUTO 09007KT 10SM OVC011 11/11 A2973 RMK AO2
 
KESN - Easton/Newnam, Maryland, USA
Distance from station: SSE 48mi, 78km
Updated: Thu, 05-May-2016 12:33am EDT
Overcast
Overcast
 Wind from E
Wind: E 9 mph , 15 km/h
Barometer: 29.74 inHg , 1007.1 hPa
Clouds: Overcast
Visibility: 10 miles , 16 km
Cloud details: Overcast 1000 ft
2016/05/05 04:33 KESN 050433Z AUTO 10008KT 10SM OVC010 A2974 RMK AO2
KDCA - Washington/Natl, Washington D.c., USA
Distance from station: SW 49mi, 79km
Updated: Thu, 05-May-2016 12:17am EDT
Overcast
Overcast
 Wind from ENE
Wind: ENE 10 mph , 17 km/h
Temperature: 54°F , 12°C
Dew Point: 50°F , 10°C
Humidity: 88%
Barometer: 29.71 inHg , 1006.1 hPa
Clouds: Overcast
Visibility: 10 miles , 16 km
Cloud details: Partly cloudy 1100 ft
Overcast 1700 ft
2016/05/05 04:17 KDCA 050417Z 06009KT 10SM SCT011 OVC017 12/10 A2971 RMK AO2 T01170100
 
KLNS - Lancaster, Pennsylvania, USA
Distance from station: N 49mi, 79km
Updated: Thu, 05-May-2016 12:14am EDT
Overcast
Overcast
 Wind from E
Wind: E 5 mph , 7 km/h
Temperature: 48°F , 9°C
Wind Chill: 46°F , 8°C
Dew Point: 46°F , 8°C
Humidity: 94%
Barometer: 29.73 inHg , 1006.8 hPa
Clouds: Overcast
Visibility: 8 miles , 13 km
Cloud details: Overcast 1400 ft
2016/05/05 04:14 KLNS 050414Z AUTO 09004KT 8SM OVC014 09/08 A2973 RMK AO2 T00940078
KILG - Wilmington, Delaware, USA
Distance from station: ENE 50mi, 81km
Updated: Wed, 04-May-2016 11:51pm EDT
Overcast
Overcast
 Wind from E
Wind: E 8 mph , 13 km/h
Temperature: 50°F , 10°C
Wind Chill: 47°F , 8°C
Dew Point: 46°F , 8°C
Humidity: 88%
Barometer: 29.73 inHg , 1006.8 hPa
Clouds: Overcast
Visibility: 10 miles , 16 km
Cloud details: Mostly cloudy 1200 ft
Mostly cloudy 1700 ft
Overcast 3500 ft
2016/05/05 03:51 KILG 050351Z 08007KT 10SM BKN012 BKN017 OVC035 10/08 A2973 RMK AO2 SLP066 T01000078 $